Time;durP1;ratioP1;P1;durP2;ratioP2;P2;SDS_P1;SDS_P2;PMS_P1;PMS_P2;Temp;Humidity;BMP_temperature;BMP_pressure;BME280_temperature;BME280_humidity;BME280_pressure;Samples;Min_cycle;Max_cycle;Signal;HPM_P1;HPM_P2
2023/04/12 00:00:45;;;;;;;4.80;3.05;;;;;;;4.85;100.00;100683.97;4963495;28;20199;-73
2023/04/12 00:03:19;;;;;;;6.10;2.80;;;;;;;4.90;99.63;100676.25;4972130;28;20218;-74
2023/04/12 00:05:53;;;;;;;13.18;2.92;;;;;;;4.80;99.79;100681.78;4965244;28;20186;-72
2023/04/12 00:08:25;;;;;;;4.38;3.97;;;;;;;4.81;99.82;100673.59;4969738;28;20285;-77
2023/04/12 00:10:56;;;;;;;6.68;3.00;;;;;;;4.73;99.41;100665.56;4971453;28;20262;-73
2023/04/12 00:13:28;;;;;;;8.10;3.03;;;;;;;4.84;99.78;100674.28;4970079;29;20224;-73
2023/04/12 00:15:59;;;;;;;3.47;2.83;;;;;;;4.94;99.08;100674.94;4963493;29;20209;-73
2023/04/12 00:18:30;;;;;;;2.95;2.30;;;;;;;4.85;98.28;100668.72;4960767;28;20246;-74
2023/04/12 00:21:00;;;;;;;7.00;2.70;;;;;;;4.77;98.45;100674.94;4966341;28;20290;-74
2023/04/12 00:23:30;;;;;;;7.43;2.75;;;;;;;4.71;98.94;100677.47;4959548;29;20227;-75
2023/04/12 00:26:02;;;;;;;7.65;3.05;;;;;;;4.61;98.78;100666.06;4958278;28;20186;-73
2023/04/12 00:28:38;;;;;;;4.60;2.85;;;;;;;4.73;99.83;100670.09;4972983;28;20217;-72
2023/04/12 00:31:11;;;;;;;3.95;2.45;;;;;;;4.71;99.80;100667.56;4967124;29;20194;-72
2023/04/12 00:33:42;;;;;;;5.45;2.95;;;;;;;4.71;98.87;100664.91;4966658;28;20207;-73
2023/04/12 00:36:12;;;;;;;3.33;2.70;;;;;;;4.68;98.62;100664.41;4970291;29;20210;-73
2023/04/12 00:38:46;;;;;;;6.30;2.47;;;;;;;4.68;98.94;100672.44;4971987;29;20226;-72
2023/04/12 00:41:17;;;;;;;7.47;2.53;;;;;;;4.80;98.92;100661.19;4973462;28;20201;-73
2023/04/12 00:43:50;;;;;;;7.45;3.45;;;;;;;4.73;98.94;100665.56;4965367;29;20629;-73
2023/04/12 00:46:20;;;;;;;4.70;2.58;;;;;;;4.60;99.59;100665.22;4971031;29;20495;-73
2023/04/12 00:48:51;;;;;;;7.93;2.50;;;;;;;4.84;99.48;100671.59;4974050;28;20226;-74
2023/04/12 00:51:21;;;;;;;9.63;3.45;;;;;;;4.86;99.42;100675.75;4969971;28;20213;-73
2023/04/12 00:53:52;;;;;;;4.10;3.10;;;;;;;4.81;99.09;100668.22;4973148;28;20264;-72
2023/04/12 00:56:26;;;;;;;4.22;2.55;;;;;;;4.76;98.61;100665.22;4972214;28;20214;-73
2023/04/12 00:59:00;;;;;;;2.97;2.40;;;;;;;4.89;99.34;100659.31;4969713;29;20226;-73
2023/04/12 01:01:32;;;;;;;4.70;2.47;;;;;;;4.69;99.69;100663.41;4962458;28;20232;-72
2023/04/12 01:04:03;;;;;;;5.00;2.65;;;;;;;4.78;99.34;100665.91;4970608;28;20237;-74
2023/04/12 01:06:46;;;;;;;5.05;3.30;;;;;;;4.56;98.89;100655.88;4980797;28;20213;-73
2023/04/12 01:09:24;;;;;;;8.60;3.63;;;;;;;4.73;98.74;100660.22;4973711;29;20666;-73
2023/04/12 01:12:09;;;;;;;4.55;2.97;;;;;;;4.65;98.69;100654.84;4971032;28;20202;-73
2023/04/12 01:14:55;;;;;;;6.13;4.07;;;;;;;4.70;98.77;100639.09;4986817;28;20215;-72
2023/04/12 01:17:36;;;;;;;5.65;2.47;;;;;;;4.56;99.00;100641.63;4993772;28;20205;-73
2023/04/12 01:20:13;;;;;;;4.88;4.10;;;;;;;4.53;99.36;100633.94;4965559;28;20222;-74
2023/04/12 01:23:07;;;;;;;6.65;3.85;;;;;;;4.75;98.78;100639.41;4967905;28;20231;-73
2023/04/12 01:25:54;;;;;;;9.98;4.07;;;;;;;4.77;98.46;100644.63;4961216;28;20198;-73
2023/04/12 01:28:36;;;;;;;6.30;4.05;;;;;;;4.73;98.73;100635.25;4956642;28;20296;-74
2023/04/12 01:31:11;;;;;;;7.55;3.70;;;;;;;4.60;99.05;100633.06;4964863;28;20206;-72
2023/04/12 01:33:47;;;;;;;5.50;3.65;;;;;;;4.73;99.09;100628.03;4936567;29;20212;-72
2023/04/12 01:36:21;;;;;;;7.35;3.65;;;;;;;4.43;98.97;100623.41;4953880;29;20270;-72
2023/04/12 01:38:52;;;;;;;2.97;2.70;;;;;;;4.60;99.50;100622.34;4958012;29;20712;-74
2023/04/12 01:41:24;;;;;;;7.57;3.30;;;;;;;4.56;99.77;100621.03;4954424;28;20207;-73
2023/04/12 01:43:55;;;;;;;6.68;3.80;;;;;;;4.66;99.98;100626.19;4957782;29;20211;-73
2023/04/12 01:46:26;;;;;;;6.47;3.97;;;;;;;4.59;100.00;100625.22;4955769;28;20581;-73
2023/04/12 01:48:58;;;;;;;8.20;4.93;;;;;;;4.38;100.00;100613.19;4947832;28;20233;-73
2023/04/12 01:51:46;;;;;;;10.48;4.35;;;;;;;4.44;100.00;100616.19;4961418;28;20197;-73
2023/04/12 01:54:23;;;;;;;5.53;3.92;;;;;;;4.25;100.00;100622.75;4961041;28;20198;-74
2023/04/12 01:56:58;;;;;;;6.78;3.60;;;;;;;4.21;100.00;100621.41;4966176;29;20253;-74
2023/04/12 01:59:34;;;;;;;6.85;3.85;;;;;;;4.05;100.00;100616.88;4973703;28;20226;-74
2023/04/12 02:02:09;;;;;;;4.75;3.75;;;;;;;4.31;100.00;100614.00;4973088;28;20193;-73
2023/04/12 02:04:41;;;;;;;14.38;5.35;;;;;;;4.44;100.00;100611.69;4978297;28;20209;-73
2023/04/12 02:07:13;;;;;;;4.90;3.92;;;;;;;4.27;100.00;100610.00;4975067;28;20206;-71
2023/04/12 02:09:43;;;;;;;3.10;2.80;;;;;;;4.07;100.00;100609.50;4977850;28;20225;-73
2023/04/12 02:12:13;;;;;;;6.85;4.07;;;;;;;4.01;100.00;100609.34;4967881;28;20214;-74
2023/04/12 02:14:45;;;;;;;6.05;3.83;;;;;;;3.96;100.00;100598.31;4967961;28;20186;-71
2023/04/12 02:17:16;;;;;;;5.57;3.90;;;;;;;4.15;100.00;100590.78;4973052;28;20278;-72
2023/04/12 02:19:47;;;;;;;5.00;3.90;;;;;;;4.34;100.00;100594.94;4971342;28;20260;-73
2023/04/12 02:22:18;;;;;;;7.10;3.58;;;;;;;4.24;100.00;100594.28;4976527;29;20194;-73
2023/04/12 02:24:48;;;;;;;6.20;3.88;;;;;;;4.26;100.00;100584.25;4969755;28;20225;-73
2023/04/12 02:27:21;;;;;;;8.40;3.60;;;;;;;4.46;100.00;100590.91;4955809;28;20202;-74
2023/04/12 02:29:54;;;;;;;4.25;2.92;;;;;;;4.43;100.00;100582.38;4953453;29;20226;-73
2023/04/12 02:32:24;;;;;;;3.90;3.30;;;;;;;4.38;100.00;100581.03;4961326;29;20234;-73
2023/04/12 02:34:57;;;;;;;9.35;3.10;;;;;;;4.37;100.00;100575.84;4953406;28;20221;-73
2023/04/12 02:37:28;;;;;;;6.40;3.08;;;;;;;4.30;100.00;100582.91;4952499;28;20496;-73
2023/04/12 02:40:01;;;;;;;5.88;3.38;;;;;;;4.24;100.00;100580.88;4955719;29;20242;-73
2023/04/12 02:42:32;;;;;;;7.45;3.50;;;;;;;4.32;100.00;100580.88;4957208;29;20260;-73
2023/04/12 02:45:07;;;;;;;5.05;3.13;;;;;;;4.18;100.00;100568.16;4950630;28;20295;-72
2023/04/12 02:47:39;;;;;;;6.20;3.40;;;;;;;4.11;100.00;100567.19;4943157;29;20707;-73
2023/04/12 02:50:11;;;;;;;5.43;3.33;;;;;;;4.32;100.00;100560.28;4954947;28;20215;-73
2023/04/12 02:52:58;;;;;;;13.05;4.65;;;;;;;4.40;100.00;100551.41;4966537;28;20190;-73
2023/04/12 02:55:31;;;;;;;3.85;3.22;;;;;;;4.50;100.00;100562.78;4973815;28;20207;-73
2023/04/12 02:58:05;;;;;;;5.30;3.10;;;;;;;4.32;100.00;100556.75;4975947;28;20192;-71
2023/04/12 03:00:48;;;;;;;5.82;2.95;;;;;;;4.33;100.00;100561.13;4957498;28;20195;-73
2023/04/12 03:03:27;;;;;;;5.20;3.17;;;;;;;4.27;100.00;100559.09;4950181;28;20310;-73
2023/04/12 03:06:05;;;;;;;4.47;2.92;;;;;;;4.29;100.00;100543.72;4952123;29;20284;-73
2023/04/12 03:08:36;;;;;;;7.75;5.03;;;;;;;4.24;100.00;100548.75;4949434;28;20223;-74
2023/04/12 03:11:07;;;;;;;4.93;3.45;;;;;;;4.31;100.00;100541.69;4943075;28;20203;-72
2023/04/12 03:13:40;;;;;;;6.53;3.00;;;;;;;4.37;100.00;100531.13;4966891;28;20210;-72
2023/04/12 03:16:28;;;;;;;5.13;4.55;;;;;;;4.39;99.78;100522.94;4945592;29;20301;-72
2023/04/12 03:19:16;;;;;;;6.97;4.35;;;;;;;4.11;99.15;100525.19;4949335;29;20226;-74
2023/04/12 03:21:53;;;;;;;6.18;3.97;;;;;;;4.14;98.82;100526.66;4951439;28;20218;-74
2023/04/12 03:24:23;;;;;;;3.88;3.28;;;;;;;3.98;98.65;100524.00;4930289;29;20209;-72
2023/04/12 03:26:54;;;;;;;5.75;3.78;;;;;;;3.94;99.48;100523.50;4951725;28;20197;-72
2023/04/12 03:29:27;;;;;;;7.30;4.32;;;;;;;3.82;100.00;100527.53;4953370;28;20671;-73
2023/04/12 03:32:01;;;;;;;5.65;4.25;;;;;;;3.93;100.00;100522.66;4949058;28;20190;-73
2023/04/12 03:34:32;;;;;;;8.10;3.65;;;;;;;3.96;100.00;100523.34;4950690;28;20234;-74
2023/04/12 03:40:09;;;;;;;6.30;4.65;;;;;;;3.86;100.00;100518.16;5714084;23;20225;-67
2023/04/12 03:42:42;;;;;;;6.38;3.80;;;;;;;3.97;100.00;100511.63;4973180;28;20233;-66
2023/04/12 03:45:13;;;;;;;5.00;3.92;;;;;;;3.92;100.00;100504.13;4973898;28;20196;-67
2023/04/12 03:47:47;;;;;;;6.20;4.25;;;;;;;3.76;100.00;100498.75;4972981;28;20588;-69
2023/04/12 03:50:19;;;;;;;10.30;4.60;;;;;;;3.55;100.00;100491.22;4976681;28;20237;-69
2023/04/12 03:52:54;;;;;;;6.20;4.88;;;;;;;3.40;100.00;100488.38;4956561;28;20245;-69
2023/04/12 03:55:29;;;;;;;4.90;4.35;;;;;;;3.39;100.00;100484.00;4958342;28;20664;-68
2023/04/12 03:58:00;;;;;;;4.47;3.75;;;;;;;3.79;100.00;100472.50;4962301;28;20220;-71
2023/04/12 04:00:35;;;;;;;4.72;4.20;;;;;;;3.68;100.00;100467.47;4954226;28;20580;-69
2023/04/12 04:03:10;;;;;;;8.80;4.57;;;;;;;3.77;100.00;100462.97;4949074;29;20258;-69
2023/04/12 04:05:45;;;;;;;8.10;4.68;;;;;;;3.91;100.00;100468.47;4970051;28;20292;-68
2023/04/12 04:08:18;;;;;;;4.25;3.72;;;;;;;4.07;100.00;100464.91;4954282;29;20245;-68
2023/04/12 04:10:54;;;;;;;5.10;3.70;;;;;;;3.89;100.00;100462.44;4972221;28;20198;-69
2023/04/12 04:13:28;;;;;;;8.82;4.88;;;;;;;3.76;100.00;100463.97;4963434;28;20683;-69
2023/04/12 04:16:05;;;;;;;5.57;3.40;;;;;;;3.92;100.00;100464.75;4972907;28;20208;-68
2023/04/12 04:18:35;;;;;;;5.10;3.67;;;;;;;4.03;99.84;100460.06;4975737;28;20219;-68
2023/04/12 04:21:07;;;;;;;6.15;4.03;;;;;;;3.87;99.86;100461.75;4960685;29;20193;-69
2023/04/12 04:23:43;;;;;;;8.63;4.07;;;;;;;3.97;99.49;100463.44;4975582;28;20204;-68
2023/04/12 04:26:12;;;;;;;7.60;3.70;;;;;;;3.99;99.73;100461.41;4961660;29;20186;-66
2023/04/12 04:28:50;;;;;;;15.10;4.55;;;;;;;4.11;100.00;100468.09;4960180;28;20226;-68
2023/04/12 04:31:25;;;;;;;7.00;3.75;;;;;;;4.09;99.43;100462.06;4967800;28;20224;-69
2023/04/12 04:33:55;;;;;;;6.00;4.10;;;;;;;4.14;99.34;100470.44;4979098;28;20234;-69
2023/04/12 04:36:32;;;;;;;5.47;3.72;;;;;;;4.11;98.90;100465.44;4971857;28;20271;-69
2023/04/12 04:39:03;;;;;;;4.78;4.15;;;;;;;4.25;97.48;100470.91;4962682;28;20250;-69
2023/04/12 04:41:53;;;;;;;9.35;4.53;;;;;;;4.24;97.72;100461.19;4973347;28;20217;-69
2023/04/12 04:44:50;;;;;;;11.75;4.88;;;;;;;5.06;97.08;100456.31;4964321;28;20205;-69
2023/04/12 04:47:21;;;;;;;6.07;4.10;;;;;;;5.97;91.18;100456.28;4960614;28;20282;-69
2023/04/12 04:49:51;;;;;;;5.00;3.78;;;;;;;6.81;84.84;100455.81;4961039;28;20229;-70
2023/04/12 04:52:27;;;;;;;4.93;3.70;;;;;;;7.30;80.68;100450.56;4973586;28;20230;-68
2023/04/12 04:55:02;;;;;;;5.72;3.95;;;;;;;7.49;78.59;100453.63;4972050;28;20550;-69
2023/04/12 04:57:37;;;;;;;9.82;5.55;;;;;;;7.84;77.20;100450.03;4962406;28;20212;-69
2023/04/12 05:00:10;;;;;;;5.65;4.07;;;;;;;8.75;72.71;100454.34;4958901;28;20272;-68
2023/04/12 05:02:42;;;;;;;7.95;4.53;;;;;;;9.33;69.21;100444.75;4968620;28;20576;-69
2023/04/12 05:05:16;;;;;;;5.50;3.40;;;;;;;9.90;66.63;100448.75;4961905;28;20237;-68
2023/04/12 05:07:47;;;;;;;8.25;4.25;;;;;;;10.29;65.23;100453.31;4954233;28;20252;-67
2023/04/12 05:10:21;;;;;;;7.10;4.05;;;;;;;10.32;63.09;100450.19;4955828;29;20653;-69
2023/04/12 05:12:50;;;;;;;10.10;4.85;;;;;;;8.85;66.96;100454.81;4968566;28;20252;-69
2023/04/12 05:15:20;;;;;;;5.20;4.13;;;;;;;7.56;72.25;100443.75;4968628;28;20202;-68
2023/04/12 05:17:49;;;;;;;6.82;3.88;;;;;;;6.74;75.91;100440.59;4952414;29;20268;-69
2023/04/12 05:20:20;;;;;;;5.28;4.50;;;;;;;6.36;78.32;100451.47;4959182;28;20596;-67
2023/04/12 05:22:49;;;;;;;4.88;4.10;;;;;;;5.91;80.17;100440.88;4968082;28;20577;-69
2023/04/12 05:25:19;;;;;;;6.65;4.00;;;;;;;5.79;81.95;100439.63;4971198;28;20292;-67
2023/04/12 05:27:58;;;;;;;7.65;4.35;;;;;;;5.71;82.99;100437.88;4967943;28;20356;-71
2023/04/12 05:30:27;;;;;;;9.48;4.45;;;;;;;5.53;82.96;100440.84;4953206;29;20203;-68
2023/04/12 05:32:56;;;;;;;7.53;4.95;;;;;;;5.49;83.13;100439.56;4956889;28;20206;-68
2023/04/12 05:35:27;;;;;;;10.23;4.28;;;;;;;5.66;84.01;100437.59;4953474;28;20583;-69
2023/04/12 05:38:00;;;;;;;5.40;4.68;;;;;;;5.67;83.75;100429.31;4951675;29;20223;-70
2023/04/12 05:40:30;;;;;;;7.85;4.80;;;;;;;5.77;82.88;100433.59;4959561;28;20203;-69
2023/04/12 05:42:59;;;;;;;6.65;4.35;;;;;;;5.75;82.88;100428.44;4960398;28;20270;-67
2023/04/12 05:45:31;;;;;;;13.02;5.22;;;;;;;5.74;82.89;100420.56;4965113;28;20207;-67
2023/04/12 05:48:01;;;;;;;8.55;4.53;;;;;;;5.72;83.27;100414.53;4973803;28;20676;-68
2023/04/12 05:50:32;;;;;;;7.43;5.53;;;;;;;5.96;82.76;100409.78;4961579;29;20210;-67
2023/04/12 05:53:02;;;;;;;11.55;5.68;;;;;;;5.97;81.93;100405.25;4966953;28;20234;-67
2023/04/12 05:55:33;;;;;;;5.30;4.80;;;;;;;6.07;81.60;100409.31;4972511;28;20207;-67
2023/04/12 05:58:06;;;;;;;13.15;4.95;;;;;;;6.22;81.38;100390.53;4972369;28;20213;-68
2023/04/12 06:00:35;;;;;;;6.50;4.80;;;;;;;6.38;79.73;100390.34;4956773;29;20639;-67
2023/04/12 06:03:05;;;;;;;9.35;4.80;;;;;;;6.50;79.46;100385.28;4960061;28;20211;-68
2023/04/12 06:05:36;;;;;;;12.02;6.20;;;;;;;6.60;78.41;100385.00;4948471;29;20195;-67
2023/04/12 06:08:05;;;;;;;7.78;4.35;;;;;;;6.65;77.85;100379.88;4971569;28;20685;-68
2023/04/12 06:10:34;;;;;;;5.38;3.70;;;;;;;6.72;77.23;100375.44;4955430;29;20203;-68
2023/04/12 06:13:04;;;;;;;7.03;4.90;;;;;;;6.81;77.10;100369.75;4973271;28;20253;-69
2023/04/12 06:15:35;;;;;;;5.82;3.92;;;;;;;7.01;76.19;100361.88;4956564;28;20194;-68
2023/04/12 06:18:04;;;;;;;5.47;4.70;;;;;;;7.13;76.17;100360.31;4959134;28;20198;-68
2023/04/12 06:20:32;;;;;;;9.48;5.15;;;;;;;7.24;75.97;100354.44;4961695;28;20191;-67
2023/04/12 06:23:03;;;;;;;9.73;5.65;;;;;;;7.46;74.77;100352.53;4968338;28;20201;-69
2023/04/12 06:25:33;;;;;;;7.78;4.55;;;;;;;7.58;74.98;100350.16;4958360;28;20203;-66
2023/04/12 06:28:02;;;;;;;6.50;4.68;;;;;;;7.76;73.67;100345.94;4955226;28;20203;-69
2023/04/12 06:30:32;;;;;;;6.68;4.75;;;;;;;7.89;73.59;100350.56;4972737;28;20207;-67
2023/04/12 06:33:01;;;;;;;8.48;4.78;;;;;;;8.03;71.96;100349.63;4971366;28;20204;-68
2023/04/12 06:35:30;;;;;;;4.60;4.10;;;;;;;8.11;71.18;100346.75;4975208;28;20573;-69
2023/04/12 06:37:59;;;;;;;5.20;4.47;;;;;;;8.08;71.62;100347.19;4952482;29;20208;-68
2023/04/12 06:40:29;;;;;;;8.27;3.97;;;;;;;8.24;71.01;100338.72;4961921;28;20659;-69
2023/04/12 06:42:58;;;;;;;6.60;4.25;;;;;;;8.33;70.43;100333.22;4958628;28;20557;-69
2023/04/12 06:45:27;;;;;;;6.95;3.80;;;;;;;8.43;69.77;100333.66;4959107;28;20752;-70
2023/04/12 06:47:56;;;;;;;5.43;4.15;;;;;;;8.51;69.60;100331.63;4949600;28;20261;-69
2023/04/12 06:50:26;;;;;;;4.25;3.20;;;;;;;8.60;68.11;100324.19;4956014;28;20203;-69
2023/04/12 06:52:55;;;;;;;11.18;4.15;;;;;;;8.57;68.24;100330.78;4957668;28;20209;-70
2023/04/12 06:55:28;;;;;;;8.95;3.67;;;;;;;8.68;68.93;100327.53;4958496;28;20213;-69
2023/04/12 06:57:58;;;;;;;6.68;4.43;;;;;;;8.84;68.02;100315.53;4972173;28;20638;-68
2023/04/12 07:00:27;;;;;;;7.65;3.58;;;;;;;8.83;66.97;100321.94;4962441;28;20228;-68
2023/04/12 07:02:56;;;;;;;7.00;4.03;;;;;;;9.00;67.13;100325.94;4966467;28;20676;-69
2023/04/12 07:05:25;;;;;;;5.82;3.97;;;;;;;9.24;67.13;100320.97;4958773;28;20690;-67
2023/04/12 07:07:54;;;;;;;7.32;3.60;;;;;;;9.43;65.76;100314.75;4956643;28;20296;-68
2023/04/12 07:10:23;;;;;;;7.43;4.22;;;;;;;9.69;65.28;100313.84;4959073;28;20198;-68
2023/04/12 07:12:52;;;;;;;6.00;3.53;;;;;;;9.76;64.21;100303.88;4962302;28;20262;-68
2023/04/12 07:15:22;;;;;;;4.75;3.67;;;;;;;9.76;64.72;100302.00;4964281;28;20206;-69
2023/04/12 07:17:51;;;;;;;8.52;3.85;;;;;;;9.73;63.44;100302.41;4955268;28;20216;-68
2023/04/12 07:20:20;;;;;;;5.80;3.53;;;;;;;9.67;62.72;100305.97;4957708;28;20204;-68
2023/04/12 07:22:49;;;;;;;7.38;3.80;;;;;;;9.72;63.53;100294.53;4963998;28;20201;-68
2023/04/12 07:25:18;;;;;;;7.18;4.88;;;;;;;9.86;63.14;100296.16;4961536;28;20195;-67
2023/04/12 07:27:46;;;;;;;6.50;3.63;;;;;;;9.91;62.89;100290.97;4961833;28;20193;-68
2023/04/12 07:30:19;;;;;;;4.65;3.30;;;;;;;10.10;62.85;100286.53;4956836;28;20779;-68
2023/04/12 07:32:49;;;;;;;5.13;3.30;;;;;;;10.08;62.12;100292.13;4960485;28;20213;-69
2023/04/12 07:35:19;;;;;;;11.65;5.15;;;;;;;10.20;60.98;100278.81;4953674;29;20198;-69
2023/04/12 07:37:48;;;;;;;4.90;2.92;;;;;;;10.00;60.88;100279.69;4959795;28;20196;-69
2023/04/12 07:40:17;;;;;;;7.03;3.88;;;;;;;10.07;60.27;100278.84;4975492;28;20236;-69
2023/04/12 07:42:46;;;;;;;7.65;3.85;;;;;;;9.98;60.42;100273.66;4963185;28;20274;-69
2023/04/12 07:45:15;;;;;;;3.90;3.10;;;;;;;10.11;60.67;100270.09;4955341;28;20643;-69
2023/04/12 07:47:44;;;;;;;16.60;3.95;;;;;;;10.17;60.01;100263.00;4962045;28;20193;-69
2023/04/12 07:50:15;;;;;;;6.45;3.97;;;;;;;10.27;60.34;100263.38;4960205;28;20230;-69
2023/04/12 07:52:44;;;;;;;6.38;3.42;;;;;;;10.41;59.87;100265.81;4955552;28;20300;-68
2023/04/12 07:55:12;;;;;;;21.08;6.32;;;;;;;10.43;58.75;100254.78;4960915;28;20225;-69
2023/04/12 07:57:41;;;;;;;5.72;2.92;;;;;;;10.49;57.85;100245.81;4958216;28;20289;-67
2023/04/12 08:00:11;;;;;;;161.82;54.47;;;;;;;10.63;58.72;100251.97;4964927;28;20228;-70
2023/04/12 08:02:43;;;;;;;28.58;10.55;;;;;;;10.68;58.13;100236.75;4959804;28;20229;-68
2023/04/12 08:05:14;;;;;;;10.27;3.27;;;;;;;10.97;56.69;100231.72;4955128;28;20564;-68
2023/04/12 08:07:43;;;;;;;205.23;60.63;;;;;;;10.97;56.69;100231.72;4955928;28;20530;-68
2023/04/12 08:10:12;;;;;;;6.43;3.13;;;;;;;11.13;55.14;100225.78;4956787;28;20596;-69
2023/04/12 08:12:41;;;;;;;9.20;4.17;;;;;;;11.17;54.13;100226.97;4970268;28;20994;-69
2023/04/12 08:15:10;;;;;;;79.83;27.07;;;;;;;11.13;56.33;100225.78;4978218;28;20457;-69
2023/04/12 08:17:42;;;;;;;5.87;3.27;;;;;;;11.29;55.34;100222.47;4964483;28;20838;-67
2023/04/12 08:20:12;;;;;;;12.30;4.67;;;;;;;11.37;54.19;100216.78;4954010;28;20773;-68
2023/04/12 08:22:42;;;;;;;4.47;4.10;;;;;;;11.56;52.42;100220.34;4953975;28;20538;-68
2023/04/12 08:25:11;;;;;;;2.83;1.93;;;;;;;11.46;51.94;100210.03;4954077;28;20404;-68
2023/04/12 08:27:42;;;;;;;9.93;2.73;;;;;;;11.66;52.08;100202.50;4955523;28;20404;-68
2023/04/12 08:30:13;;;;;;;5.07;2.00;;;;;;;11.82;51.39;100205.69;4960744;28;20426;-67
2023/04/12 08:32:42;;;;;;;5.10;2.80;;;;;;;11.82;51.94;100202.97;4958773;28;20779;-67
2023/04/12 08:35:11;;;;;;;3.30;1.80;;;;;;;12.01;50.99;100201.91;4955412;28;20511;-68
2023/04/12 08:37:41;;;;;;;8.33;1.90;;;;;;;11.89;49.69;100201.03;4955327;28;20896;-68
2023/04/12 08:40:11;;;;;;;5.47;2.77;;;;;;;11.91;49.82;100201.63;4961142;28;20583;-69
2023/04/12 08:42:40;;;;;;;10.23;1.63;;;;;;;11.81;49.33;100190.50;4960850;28;20443;-69
2023/04/12 08:45:11;;;;;;;6.60;3.60;;;;;;;11.92;50.01;100185.13;4954599;28;20808;-69
2023/04/12 08:47:42;;;;;;;4.90;1.80;;;;;;;11.82;49.09;100186.69;4954173;28;20439;-68
2023/04/12 08:50:13;;;;;;;5.10;1.93;;;;;;;12.10;48.22;100179.66;4952279;28;20813;-68
2023/04/12 08:52:43;;;;;;;2.50;1.23;;;;;;;12.42;48.02;100180.25;4953239;28;20443;-67
2023/04/12 08:55:12;;;;;;;2.43;1.37;;;;;;;12.69;47.60;100179.84;4963261;28;20465;-67
2023/04/12 08:57:43;;;;;;;4.10;2.33;;;;;;;12.66;46.36;100164.84;4961408;28;20413;-66
2023/04/12 09:00:14;;;;;;;4.33;1.53;;;;;;;12.67;45.27;100166.53;4956839;28;20464;-67
2023/04/12 09:02:45;;;;;;;3.60;1.80;;;;;;;12.80;45.39;100158.16;4960388;28;20438;-69
2023/04/12 09:05:15;;;;;;;4.40;2.23;;;;;;;13.01;45.69;100154.03;4955789;28;20445;-68
2023/04/12 09:07:45;;;;;;;4.23;1.60;;;;;;;12.85;45.57;100146.59;4960958;28;20410;-70
2023/04/12 09:10:31;;;;;;;2.80;1.30;;;;;;;12.88;45.67;100149.66;4961467;28;20463;-68
2023/04/12 09:13:01;;;;;;;5.10;1.70;;;;;;;12.97;44.42;100142.00;4957960;28;20504;-67
2023/04/12 09:15:30;;;;;;;4.73;1.70;;;;;;;13.07;44.67;100143.03;4953834;29;20442;-69
2023/04/12 09:18:07;;;;;;;4.07;1.97;;;;;;;13.05;44.57;100128.06;4955654;28;20415;-67
2023/04/12 09:20:37;;;;;;;2.83;1.47;;;;;;;13.13;44.54;100133.16;4953781;28;20526;-67
2023/04/12 09:23:23;;;;;;;8.40;1.47;;;;;;;12.96;43.30;100129.47;4959196;28;20406;-68
2023/04/12 09:25:52;;;;;;;1.80;1.60;;;;;;;12.96;43.40;100122.16;4969882;28;20530;-69
2023/04/12 09:28:24;;;;;;;5.30;1.47;;;;;;;13.27;43.03;100120.16;4959315;28;20786;-70
2023/04/12 09:30:54;;;;;;;5.50;2.47;;;;;;;13.54;43.33;100115.03;4957921;28;20458;-68
2023/04/12 09:33:32;;;;;;;4.67;1.70;;;;;;;13.63;42.10;100113.56;4960240;28;20920;-68
2023/04/12 09:36:02;;;;;;;7.17;2.00;;;;;;;13.86;41.27;100113.50;4963209;28;20517;-67
2023/04/12 09:38:35;;;;;;;6.17;1.70;;;;;;;14.02;41.21;100110.00;4993968;23;20478;-82
2023/04/12 09:41:21;;;;;;;3.93;1.50;;;;;;;14.18;40.66;100095.63;4961964;29;20827;-82
2023/04/12 09:43:55;;;;;;;2.27;1.87;;;;;;;14.23;39.61;100092.97;4966922;29;20403;-80
2023/04/12 09:46:28;;;;;;;3.00;1.77;;;;;;;14.21;39.80;100089.69;4966070;29;20459;-80
2023/04/12 09:48:58;;;;;;;2.97;1.83;;;;;;;14.21;39.38;100092.41;4964281;29;20496;-81
2023/04/12 09:51:31;;;;;;;2.57;1.70;;;;;;;14.22;39.29;100071.47;4958923;28;20417;-83
2023/04/12 09:54:03;;;;;;;3.43;2.50;;;;;;;14.42;38.69;100074.56;4957202;29;20439;-83
2023/04/12 09:56:34;;;;;;;3.53;2.13;;;;;;;14.43;38.73;100059.84;4945908;28;20519;-83
2023/04/12 09:59:05;;;;;;;5.00;1.83;;;;;;;14.03;39.67;100059.97;4970188;28;20422;-82
2023/04/12 10:01:36;;;;;;;6.40;2.67;;;;;;;14.03;37.85;100054.53;4978530;29;20427;-83
2023/04/12 10:04:08;;;;;;;2.90;2.00;;;;;;;13.91;38.29;100057.31;4957439;29;20470;-83
2023/04/12 10:06:40;;;;;;;7.40;3.77;;;;;;;13.95;37.91;100041.31;4959299;29;20424;-82
2023/04/12 10:09:13;;;;;;;2.80;1.90;;;;;;;14.30;38.79;100035.66;4953477;29;20463;-82
2023/04/12 10:11:45;;;;;;;3.00;1.87;;;;;;;14.39;38.32;100031.50;4963764;28;20440;-84
2023/04/12 10:14:14;;;;;;;2.80;2.20;;;;;;;14.46;37.40;100026.72;4963814;28;20414;-82
2023/04/12 10:16:47;;;;;;;5.00;2.07;;;;;;;14.50;37.83;100016.16;4957530;28;20406;-80
2023/04/12 10:19:17;;;;;;;6.27;2.10;;;;;;;14.55;37.39;100014.34;4962999;29;20438;-82
2023/04/12 10:21:46;;;;;;;5.00;2.20;;;;;;;14.37;37.66;100002.88;4969533;28;20432;-82
2023/04/12 10:24:17;;;;;;;5.63;3.00;;;;;;;14.40;37.25;100003.22;4969609;29;20457;-79
2023/04/12 10:26:49;;;;;;;2.70;1.90;;;;;;;14.57;37.50;100005.94;4969117;29;20675;-82
2023/04/12 10:29:26;;;;;;;9.10;2.03;;;;;;;14.36;37.24;99985.72;4961062;29;20970;-84
2023/04/12 10:31:56;;;;;;;3.93;2.47;;;;;;;14.46;37.75;99983.16;4960907;29;20470;-81
2023/04/12 10:34:28;;;;;;;5.73;2.07;;;;;;;14.74;37.50;99977.56;4973799;28;20444;-82
2023/04/12 10:36:58;;;;;;;5.03;2.47;;;;;;;15.19;37.52;99976.53;4956046;29;20429;-83
2023/04/12 10:39:43;;;;;;;4.10;1.77;;;;;;;15.25;36.95;99969.25;4955740;29;20488;-83
2023/04/12 10:42:23;;;;;;;2.97;1.53;;;;;;;15.11;36.23;99969.59;4953771;29;20435;-83
2023/04/12 10:44:54;;;;;;;7.37;1.87;;;;;;;14.83;36.85;99967.06;4963380;29;20447;-83
2023/04/12 10:48:02;;;;;;;7.00;2.10;;;;;;;14.87;37.11;99961.94;4961090;28;20492;-81
2023/04/12 10:50:34;;;;;;;4.33;2.10;;;;;;;15.01;36.89;99947.69;4958591;28;20406;-84
2023/04/12 10:53:27;;;;;;;3.77;2.37;;;;;;;15.10;36.69;99948.88;4954723;28;20443;-82
2023/04/12 10:55:59;;;;;;;4.10;1.77;;;;;;;14.74;36.41;99946.78;4956056;29;20499;-83
2023/04/12 10:58:55;;;;;;;5.23;2.60;;;;;;;14.92;37.29;99937.47;4957895;29;20477;-81
2023/04/12 11:01:31;;;;;;;2.27;1.73;;;;;;;15.33;36.53;99933.34;4956361;29;20554;-82
2023/04/12 11:04:16;;;;;;;3.00;1.63;;;;;;;15.38;36.40;99926.03;4959682;28;20536;-83
2023/04/12 11:07:01;;;;;;;3.77;2.40;;;;;;;15.41;35.84;99921.97;4958912;29;20975;-81
2023/04/12 11:10:02;;;;;;;4.80;2.50;;;;;;;15.71;35.62;99916.00;4954700;29;20434;-82
2023/04/12 11:12:38;;;;;;;5.90;2.03;;;;;;;15.84;35.63;99921.84;4956676;29;20452;-82
2023/04/12 11:15:11;;;;;;;5.90;1.70;;;;;;;15.36;35.78;99911.00;4951067;29;20815;-80
2023/04/12 11:17:54;;;;;;;8.03;2.30;;;;;;;15.51;36.53;99908.47;4946940;29;20449;-79
2023/04/12 11:20:26;;;;;;;3.53;1.90;;;;;;;15.43;35.86;99901.56;4956403;29;20472;-81
2023/04/12 11:22:57;;;;;;;2.17;1.80;;;;;;;15.56;36.56;99889.44;4955134;29;20527;-81
2023/04/12 11:25:30;;;;;;;4.50;2.73;;;;;;;15.90;36.12;99884.53;4954269;29;20433;-84
2023/04/12 11:28:01;;;;;;;3.30;2.00;;;;;;;15.79;35.61;99888.25;4972885;28;20419;-82
2023/04/12 11:30:50;;;;;;;3.70;2.57;;;;;;;15.64;35.86;99897.13;4977812;28;20439;-83
2023/04/12 11:33:35;;;;;;;2.67;1.97;;;;;;;15.44;35.85;99892.28;4961116;28;20420;-82
2023/04/12 11:36:06;;;;;;;5.57;2.00;;;;;;;15.55;35.95;99879.59;4956791;28;20452;-84
2023/04/12 11:38:36;;;;;;;8.00;4.33;;;;;;;15.74;36.86;99878.13;4961121;29;20454;-82
2023/04/12 11:41:08;;;;;;;3.70;2.10;;;;;;;15.94;36.13;99872.84;4959994;29;20459;-82
2023/04/12 11:43:39;;;;;;;7.07;1.83;;;;;;;15.89;35.58;99853.69;4960650;29;20463;-84
2023/04/12 11:46:08;;;;;;;9.30;2.30;;;;;;;16.02;36.08;99869.59;4964943;28;20472;-82
2023/04/12 11:48:38;;;;;;;3.10;1.87;;;;;;;16.34;35.54;99857.81;4960339;29;20453;-82
2023/04/12 11:51:20;;;;;;;2.80;1.43;;;;;;;15.54;35.51;99853.44;4953928;29;20666;-82
2023/04/12 11:53:54;;;;;;;2.33;1.40;;;;;;;15.27;36.03;99838.97;4964209;29;20572;-81
2023/04/12 11:56:23;;;;;;;2.97;1.80;;;;;;;15.44;35.60;99847.88;4973309;28;20418;-84
2023/04/12 11:58:54;;;;;;;5.10;1.33;;;;;;;15.32;36.22;99849.91;4954802;28;20462;-82